sensor_id;sensor_type;location;lat;lon;timestamp;P1;durP1;ratioP1;P2;durP2;ratioP2
23080;SDS011;72373;50.562;8.498;2023-11-21T00:01:35;13.93;;;6.30;;
23080;SDS011;72373;50.562;8.498;2023-11-21T00:04:01;14.02;;;6.95;;
23080;SDS011;72373;50.562;8.498;2023-11-21T00:06:26;13.57;;;5.90;;
23080;SDS011;72373;50.562;8.498;2023-11-21T00:08:52;12.65;;;6.72;;
23080;SDS011;72373;50.562;8.498;2023-11-21T00:11:17;11.38;;;6.55;;
23080;SDS011;72373;50.562;8.498;2023-11-21T00:13:43;16.67;;;7.30;;
23080;SDS011;72373;50.562;8.498;2023-11-21T00:16:09;15.10;;;6.82;;
23080;SDS011;72373;50.562;8.498;2023-11-21T00:18:34;14.15;;;7.38;;
23080;SDS011;72373;50.562;8.498;2023-11-21T00:21:00;11.45;;;6.38;;
23080;SDS011;72373;50.562;8.498;2023-11-21T00:23:26;13.10;;;6.72;;
23080;SDS011;72373;50.562;8.498;2023-11-21T00:25:51;18.33;;;8.13;;
23080;SDS011;72373;50.562;8.498;2023-11-21T00:28:17;16.58;;;7.88;;
23080;SDS011;72373;50.562;8.498;2023-11-21T00:30:42;19.88;;;8.50;;
23080;SDS011;72373;50.562;8.498;2023-11-21T00:33:08;19.10;;;8.85;;
23080;SDS011;72373;50.562;8.498;2023-11-21T00:35:33;24.15;;;9.75;;
23080;SDS011;72373;50.562;8.498;2023-11-21T00:37:59;21.52;;;9.80;;
23080;SDS011;72373;50.562;8.498;2023-11-21T00:40:24;20.92;;;9.98;;
23080;SDS011;72373;50.562;8.498;2023-11-21T00:42:50;24.55;;;9.95;;
23080;SDS011;72373;50.562;8.498;2023-11-21T00:45:15;25.33;;;9.85;;
23080;SDS011;72373;50.562;8.498;2023-11-21T00:47:41;21.67;;;10.05;;
23080;SDS011;72373;50.562;8.498;2023-11-21T00:50:07;25.55;;;10.63;;
23080;SDS011;72373;50.562;8.498;2023-11-21T00:52:34;22.35;;;10.20;;
23080;SDS011;72373;50.562;8.498;2023-11-21T00:55:01;22.63;;;10.45;;
23080;SDS011;72373;50.562;8.498;2023-11-21T00:57:28;28.27;;;10.95;;
23080;SDS011;72373;50.562;8.498;2023-11-21T00:59:53;24.00;;;10.88;;
23080;SDS011;72373;50.562;8.498;2023-11-21T01:02:19;22.75;;;9.98;;
23080;SDS011;72373;50.562;8.498;2023-11-21T01:04:45;20.77;;;9.70;;
23080;SDS011;72373;50.562;8.498;2023-11-21T01:07:12;22.60;;;9.23;;
23080;SDS011;72373;50.562;8.498;2023-11-21T01:09:38;21.63;;;9.45;;
23080;SDS011;72373;50.562;8.498;2023-11-21T01:12:04;21.35;;;9.20;;
23080;SDS011;72373;50.562;8.498;2023-11-21T01:14:29;23.15;;;10.23;;
23080;SDS011;72373;50.562;8.498;2023-11-21T01:16:55;20.45;;;9.32;;
23080;SDS011;72373;50.562;8.498;2023-11-21T01:19:21;20.05;;;8.68;;
23080;SDS011;72373;50.562;8.498;2023-11-21T01:21:46;19.80;;;9.27;;
23080;SDS011;72373;50.562;8.498;2023-11-21T01:24:12;19.98;;;8.40;;
23080;SDS011;72373;50.562;8.498;2023-11-21T01:26:37;21.60;;;8.73;;
23080;SDS011;72373;50.562;8.498;2023-11-21T01:29:03;20.73;;;9.27;;
23080;SDS011;72373;50.562;8.498;2023-11-21T01:31:29;19.75;;;8.48;;
23080;SDS011;72373;50.562;8.498;2023-11-21T01:33:55;14.75;;;7.88;;
23080;SDS011;72373;50.562;8.498;2023-11-21T01:36:21;14.77;;;8.23;;
23080;SDS011;72373;50.562;8.498;2023-11-21T01:38:47;18.30;;;8.27;;
23080;SDS011;72373;50.562;8.498;2023-11-21T01:41:15;16.63;;;7.82;;
23080;SDS011;72373;50.562;8.498;2023-11-21T01:43:41;19.08;;;8.02;;
23080;SDS011;72373;50.562;8.498;2023-11-21T01:46:07;18.35;;;8.48;;
23080;SDS011;72373;50.562;8.498;2023-11-21T01:48:33;20.23;;;7.95;;
23080;SDS011;72373;50.562;8.498;2023-11-21T01:50:59;20.80;;;9.10;;
23080;SDS011;72373;50.562;8.498;2023-11-21T01:53:26;19.10;;;8.75;;
23080;SDS011;72373;50.562;8.498;2023-11-21T01:55:52;18.15;;;8.55;;
23080;SDS011;72373;50.562;8.498;2023-11-21T01:58:19;19.25;;;8.55;;
23080;SDS011;72373;50.562;8.498;2023-11-21T02:00:45;13.82;;;8.10;;
23080;SDS011;72373;50.562;8.498;2023-11-21T02:03:10;17.95;;;8.57;;
23080;SDS011;72373;50.562;8.498;2023-11-21T02:05:37;17.83;;;8.88;;
23080;SDS011;72373;50.562;8.498;2023-11-21T02:08:02;24.10;;;10.55;;
23080;SDS011;72373;50.562;8.498;2023-11-21T02:10:29;22.05;;;9.40;;
23080;SDS011;72373;50.562;8.498;2023-11-21T02:12:56;21.20;;;9.40;;
23080;SDS011;72373;50.562;8.498;2023-11-21T02:15:23;21.08;;;8.75;;
23080;SDS011;72373;50.562;8.498;2023-11-21T02:17:52;18.90;;;9.15;;
23080;SDS011;72373;50.562;8.498;2023-11-21T02:20:18;16.00;;;8.05;;
23080;SDS011;72373;50.562;8.498;2023-11-21T02:22:55;13.77;;;6.07;;
23080;SDS011;72373;50.562;8.498;2023-11-21T02:25:27;15.85;;;6.57;;
23080;SDS011;72373;50.562;8.498;2023-11-21T02:27:58;16.63;;;6.78;;
23080;SDS011;72373;50.562;8.498;2023-11-21T02:30:25;13.23;;;5.55;;
23080;SDS011;72373;50.562;8.498;2023-11-21T02:32:53;9.27;;;5.20;;
23080;SDS011;72373;50.562;8.498;2023-11-21T02:35:19;10.68;;;5.70;;
23080;SDS011;72373;50.562;8.498;2023-11-21T02:37:48;9.65;;;5.93;;
23080;SDS011;72373;50.562;8.498;2023-11-21T02:40:14;14.43;;;6.63;;
23080;SDS011;72373;50.562;8.498;2023-11-21T02:42:43;13.38;;;6.00;;
23080;SDS011;72373;50.562;8.498;2023-11-21T02:45:09;12.85;;;6.07;;
23080;SDS011;72373;50.562;8.498;2023-11-21T02:47:38;13.63;;;5.68;;
23080;SDS011;72373;50.562;8.498;2023-11-21T02:50:04;13.85;;;6.20;;
23080;SDS011;72373;50.562;8.498;2023-11-21T02:52:31;11.13;;;5.00;;
23080;SDS011;72373;50.562;8.498;2023-11-21T02:54:58;7.53;;;3.92;;
23080;SDS011;72373;50.562;8.498;2023-11-21T02:57:23;8.77;;;4.95;;
23080;SDS011;72373;50.562;8.498;2023-11-21T02:59:49;10.70;;;5.20;;
23080;SDS011;72373;50.562;8.498;2023-11-21T03:02:15;9.82;;;5.82;;
23080;SDS011;72373;50.562;8.498;2023-11-21T03:04:40;6.75;;;4.20;;
23080;SDS011;72373;50.562;8.498;2023-11-21T03:07:07;7.43;;;4.75;;
23080;SDS011;72373;50.562;8.498;2023-11-21T03:09:33;12.68;;;5.07;;
23080;SDS011;72373;50.562;8.498;2023-11-21T03:11:59;9.30;;;5.45;;
23080;SDS011;72373;50.562;8.498;2023-11-21T03:14:24;7.43;;;4.90;;
23080;SDS011;72373;50.562;8.498;2023-11-21T03:16:50;8.38;;;5.10;;
23080;SDS011;72373;50.562;8.498;2023-11-21T03:19:15;8.40;;;4.47;;
23080;SDS011;72373;50.562;8.498;2023-11-21T03:21:42;6.35;;;4.47;;
23080;SDS011;72373;50.562;8.498;2023-11-21T03:24:07;9.27;;;6.07;;
23080;SDS011;72373;50.562;8.498;2023-11-21T03:26:33;9.32;;;5.38;;
23080;SDS011;72373;50.562;8.498;2023-11-21T03:28:59;11.60;;;5.90;;
23080;SDS011;72373;50.562;8.498;2023-11-21T03:31:24;11.82;;;5.80;;
23080;SDS011;72373;50.562;8.498;2023-11-21T03:33:51;10.60;;;5.72;;
23080;SDS011;72373;50.562;8.498;2023-11-21T03:36:18;11.93;;;5.90;;
23080;SDS011;72373;50.562;8.498;2023-11-21T03:38:44;10.90;;;5.47;;
23080;SDS011;72373;50.562;8.498;2023-11-21T03:41:10;10.25;;;5.53;;
23080;SDS011;72373;50.562;8.498;2023-11-21T03:43:38;9.63;;;6.15;;
23080;SDS011;72373;50.562;8.498;2023-11-21T03:46:04;9.10;;;5.00;;
23080;SDS011;72373;50.562;8.498;2023-11-21T03:48:29;12.15;;;5.60;;
23080;SDS011;72373;50.562;8.498;2023-11-21T03:50:55;12.02;;;5.85;;
23080;SDS011;72373;50.562;8.498;2023-11-21T03:53:20;8.85;;;4.75;;
23080;SDS011;72373;50.562;8.498;2023-11-21T03:55:46;11.15;;;5.18;;
23080;SDS011;72373;50.562;8.498;2023-11-21T03:58:12;9.57;;;4.93;;
23080;SDS011;72373;50.562;8.498;2023-11-21T04:00:37;10.23;;;5.35;;
23080;SDS011;72373;50.562;8.498;2023-11-21T04:03:03;8.60;;;5.15;;
23080;SDS011;72373;50.562;8.498;2023-11-21T04:05:29;8.75;;;4.68;;
23080;SDS011;72373;50.562;8.498;2023-11-21T04:07:56;11.57;;;5.13;;
23080;SDS011;72373;50.562;8.498;2023-11-21T04:10:21;7.97;;;5.18;;
23080;SDS011;72373;50.562;8.498;2023-11-21T04:12:47;10.27;;;5.30;;
23080;SDS011;72373;50.562;8.498;2023-11-21T04:15:13;10.93;;;4.95;;
23080;SDS011;72373;50.562;8.498;2023-11-21T04:17:39;8.65;;;4.85;;
23080;SDS011;72373;50.562;8.498;2023-11-21T04:20:05;9.25;;;5.57;;
23080;SDS011;72373;50.562;8.498;2023-11-21T04:22:41;9.95;;;5.18;;
23080;SDS011;72373;50.562;8.498;2023-11-21T04:25:09;8.52;;;5.07;;
23080;SDS011;72373;50.562;8.498;2023-11-21T04:27:41;7.45;;;4.55;;
23080;SDS011;72373;50.562;8.498;2023-11-21T04:30:09;8.60;;;5.20;;
23080;SDS011;72373;50.562;8.498;2023-11-21T04:32:35;13.55;;;5.60;;
23080;SDS011;72373;50.562;8.498;2023-11-21T04:35:01;9.48;;;5.50;;
23080;SDS011;72373;50.562;8.498;2023-11-21T04:37:27;12.65;;;5.65;;
23080;SDS011;72373;50.562;8.498;2023-11-21T04:39:52;9.52;;;5.68;;
23080;SDS011;72373;50.562;8.498;2023-11-21T04:42:18;8.20;;;4.95;;
23080;SDS011;72373;50.562;8.498;2023-11-21T04:44:43;9.07;;;5.28;;
23080;SDS011;72373;50.562;8.498;2023-11-21T04:47:09;9.70;;;5.72;;
23080;SDS011;72373;50.562;8.498;2023-11-21T04:49:35;11.40;;;6.47;;
23080;SDS011;72373;50.562;8.498;2023-11-21T04:52:01;10.77;;;5.55;;
23080;SDS011;72373;50.562;8.498;2023-11-21T04:54:28;10.23;;;5.80;;
23080;SDS011;72373;50.562;8.498;2023-11-21T04:56:55;12.00;;;7.50;;
23080;SDS011;72373;50.562;8.498;2023-11-21T04:59:21;11.18;;;6.13;;
23080;SDS011;72373;50.562;8.498;2023-11-21T05:01:49;9.55;;;5.10;;
23080;SDS011;72373;50.562;8.498;2023-11-21T05:04:15;8.60;;;5.05;;
23080;SDS011;72373;50.562;8.498;2023-11-21T05:06:41;12.85;;;5.65;;
23080;SDS011;72373;50.562;8.498;2023-11-21T05:09:06;13.70;;;5.97;;
23080;SDS011;72373;50.562;8.498;2023-11-21T05:11:36;11.27;;;5.45;;
23080;SDS011;72373;50.562;8.498;2023-11-21T05:14:02;11.35;;;5.55;;
23080;SDS011;72373;50.562;8.498;2023-11-21T05:16:29;12.80;;;5.35;;
23080;SDS011;72373;50.562;8.498;2023-11-21T05:18:54;11.13;;;5.93;;
23080;SDS011;72373;50.562;8.498;2023-11-21T05:21:25;8.63;;;5.38;;
23080;SDS011;72373;50.562;8.498;2023-11-21T05:23:51;12.60;;;6.70;;
23080;SDS011;72373;50.562;8.498;2023-11-21T05:26:16;8.95;;;5.53;;
23080;SDS011;72373;50.562;8.498;2023-11-21T05:28:42;10.38;;;6.20;;
23080;SDS011;72373;50.562;8.498;2023-11-21T05:31:08;11.07;;;6.70;;
23080;SDS011;72373;50.562;8.498;2023-11-21T05:33:33;10.15;;;6.65;;
23080;SDS011;72373;50.562;8.498;2023-11-21T05:35:59;14.30;;;7.95;;
23080;SDS011;72373;50.562;8.498;2023-11-21T05:38:24;13.73;;;7.20;;
23080;SDS011;72373;50.562;8.498;2023-11-21T05:40:50;16.30;;;8.65;;
23080;SDS011;72373;50.562;8.498;2023-11-21T05:43:16;15.52;;;7.80;;
23080;SDS011;72373;50.562;8.498;2023-11-21T05:45:42;19.38;;;9.23;;
23080;SDS011;72373;50.562;8.498;2023-11-21T05:48:08;10.68;;;7.60;;
23080;SDS011;72373;50.562;8.498;2023-11-21T05:50:33;16.27;;;7.97;;
23080;SDS011;72373;50.562;8.498;2023-11-21T05:52:59;16.83;;;8.15;;
23080;SDS011;72373;50.562;8.498;2023-11-21T05:55:25;15.07;;;8.40;;
23080;SDS011;72373;50.562;8.498;2023-11-21T05:57:51;17.90;;;8.13;;
23080;SDS011;72373;50.562;8.498;2023-11-21T06:00:17;14.13;;;7.75;;
23080;SDS011;72373;50.562;8.498;2023-11-21T06:02:46;17.40;;;8.75;;
23080;SDS011;72373;50.562;8.498;2023-11-21T06:05:15;16.02;;;7.97;;
23080;SDS011;72373;50.562;8.498;2023-11-21T06:07:42;11.95;;;7.20;;
23080;SDS011;72373;50.562;8.498;2023-11-21T06:10:08;12.55;;;7.57;;
23080;SDS011;72373;50.562;8.498;2023-11-21T06:12:36;14.23;;;7.95;;
23080;SDS011;72373;50.562;8.498;2023-11-21T06:15:03;18.80;;;8.82;;
23080;SDS011;72373;50.562;8.498;2023-11-21T06:17:30;13.95;;;7.93;;
23080;SDS011;72373;50.562;8.498;2023-11-21T06:19:56;12.50;;;7.13;;
23080;SDS011;72373;50.562;8.498;2023-11-21T06:22:22;13.23;;;7.10;;
23080;SDS011;72373;50.562;8.498;2023-11-21T06:24:47;16.88;;;7.55;;
23080;SDS011;72373;50.562;8.498;2023-11-21T06:27:13;13.77;;;7.75;;
23080;SDS011;72373;50.562;8.498;2023-11-21T06:29:38;10.95;;;6.15;;
23080;SDS011;72373;50.562;8.498;2023-11-21T06:32:04;12.48;;;6.55;;
23080;SDS011;72373;50.562;8.498;2023-11-21T06:34:30;12.23;;;7.10;;
23080;SDS011;72373;50.562;8.498;2023-11-21T06:36:56;10.55;;;6.38;;
23080;SDS011;72373;50.562;8.498;2023-11-21T06:39:21;11.48;;;7.10;;
23080;SDS011;72373;50.562;8.498;2023-11-21T06:41:48;15.00;;;7.05;;
23080;SDS011;72373;50.562;8.498;2023-11-21T06:44:16;17.77;;;7.53;;
23080;SDS011;72373;50.562;8.498;2023-11-21T06:46:42;13.32;;;7.18;;
23080;SDS011;72373;50.562;8.498;2023-11-21T06:49:08;13.60;;;7.20;;
23080;SDS011;72373;50.562;8.498;2023-11-21T06:51:33;12.43;;;7.45;;
23080;SDS011;72373;50.562;8.498;2023-11-21T06:53:59;17.05;;;8.15;;
23080;SDS011;72373;50.562;8.498;2023-11-21T06:56:25;13.85;;;7.80;;
23080;SDS011;72373;50.562;8.498;2023-11-21T06:58:50;14.88;;;8.60;;
23080;SDS011;72373;50.562;8.498;2023-11-21T07:01:18;12.20;;;7.72;;
23080;SDS011;72373;50.562;8.498;2023-11-21T07:03:44;12.90;;;7.82;;
23080;SDS011;72373;50.562;8.498;2023-11-21T07:06:10;12.55;;;8.05;;
23080;SDS011;72373;50.562;8.498;2023-11-21T07:08:36;14.88;;;8.10;;
23080;SDS011;72373;50.562;8.498;2023-11-21T07:11:02;14.80;;;8.07;;
23080;SDS011;72373;50.562;8.498;2023-11-21T07:13:28;13.38;;;8.00;;
23080;SDS011;72373;50.562;8.498;2023-11-21T07:15:54;12.60;;;7.93;;
23080;SDS011;72373;50.562;8.498;2023-11-21T07:18:20;15.23;;;8.27;;
23080;SDS011;72373;50.562;8.498;2023-11-21T07:20:45;13.13;;;8.43;;
23080;SDS011;72373;50.562;8.498;2023-11-21T07:23:11;16.13;;;8.30;;
23080;SDS011;72373;50.562;8.498;2023-11-21T07:25:36;14.98;;;7.93;;
23080;SDS011;72373;50.562;8.498;2023-11-21T07:28:02;14.73;;;8.18;;
23080;SDS011;72373;50.562;8.498;2023-11-21T07:30:28;13.85;;;8.63;;
23080;SDS011;72373;50.562;8.498;2023-11-21T07:32:53;15.40;;;8.20;;
23080;SDS011;72373;50.562;8.498;2023-11-21T07:35:19;14.43;;;9.02;;
23080;SDS011;72373;50.562;8.498;2023-11-21T07:37:44;16.15;;;8.73;;
23080;SDS011;72373;50.562;8.498;2023-11-21T07:40:10;15.48;;;8.45;;
23080;SDS011;72373;50.562;8.498;2023-11-21T07:42:36;14.13;;;8.55;;
23080;SDS011;72373;50.562;8.498;2023-11-21T07:45:02;14.18;;;8.23;;
23080;SDS011;72373;50.562;8.498;2023-11-21T07:47:29;12.20;;;8.15;;
23080;SDS011;72373;50.562;8.498;2023-11-21T07:49:54;11.45;;;7.25;;
23080;SDS011;72373;50.562;8.498;2023-11-21T07:52:21;18.65;;;8.82;;
23080;SDS011;72373;50.562;8.498;2023-11-21T07:54:47;14.23;;;8.07;;
23080;SDS011;72373;50.562;8.498;2023-11-21T07:57:12;17.52;;;9.30;;
23080;SDS011;72373;50.562;8.498;2023-11-21T07:59:38;12.43;;;8.18;;
23080;SDS011;72373;50.562;8.498;2023-11-21T08:02:06;13.15;;;7.68;;
23080;SDS011;72373;50.562;8.498;2023-11-21T08:04:32;15.73;;;8.32;;
23080;SDS011;72373;50.562;8.498;2023-11-21T08:06:59;15.73;;;8.70;;
23080;SDS011;72373;50.562;8.498;2023-11-21T08:09:24;18.02;;;8.93;;
23080;SDS011;72373;50.562;8.498;2023-11-21T08:11:50;13.98;;;8.77;;
23080;SDS011;72373;50.562;8.498;2023-11-21T08:14:18;16.58;;;8.93;;
23080;SDS011;72373;50.562;8.498;2023-11-21T08:16:43;16.20;;;8.38;;
23080;SDS011;72373;50.562;8.498;2023-11-21T08:19:09;13.38;;;7.78;;
23080;SDS011;72373;50.562;8.498;2023-11-21T08:21:36;18.00;;;8.00;;
23080;SDS011;72373;50.562;8.498;2023-11-21T08:24:05;13.13;;;8.43;;
23080;SDS011;72373;50.562;8.498;2023-11-21T08:26:35;16.98;;;9.35;;
23080;SDS011;72373;50.562;8.498;2023-11-21T08:29:01;12.68;;;8.43;;
23080;SDS011;72373;50.562;8.498;2023-11-21T08:31:27;14.10;;;9.30;;
23080;SDS011;72373;50.562;8.498;2023-11-21T08:33:53;13.25;;;8.25;;
23080;SDS011;72373;50.562;8.498;2023-11-21T08:36:20;12.15;;;7.95;;
23080;SDS011;72373;50.562;8.498;2023-11-21T08:38:48;11.18;;;7.50;;
23080;SDS011;72373;50.562;8.498;2023-11-21T08:41:14;15.50;;;7.95;;
23080;SDS011;72373;50.562;8.498;2023-11-21T08:43:40;14.07;;;7.82;;
23080;SDS011;72373;50.562;8.498;2023-11-21T08:46:06;15.80;;;7.55;;
23080;SDS011;72373;50.562;8.498;2023-11-21T08:48:33;12.52;;;7.47;;
23080;SDS011;72373;50.562;8.498;2023-11-21T08:51:00;11.88;;;7.45;;
23080;SDS011;72373;50.562;8.498;2023-11-21T08:53:26;13.80;;;8.05;;
23080;SDS011;72373;50.562;8.498;2023-11-21T08:55:52;15.05;;;7.90;;
23080;SDS011;72373;50.562;8.498;2023-11-21T08:58:18;13.10;;;7.97;;
23080;SDS011;72373;50.562;8.498;2023-11-21T09:00:44;12.40;;;6.80;;
23080;SDS011;72373;50.562;8.498;2023-11-21T09:03:11;10.52;;;6.85;;
23080;SDS011;72373;50.562;8.498;2023-11-21T09:05:38;12.43;;;6.68;;
23080;SDS011;72373;50.562;8.498;2023-11-21T09:08:04;15.60;;;8.68;;
23080;SDS011;72373;50.562;8.498;2023-11-21T09:10:29;12.68;;;7.25;;
23080;SDS011;72373;50.562;8.498;2023-11-21T09:12:55;11.00;;;6.93;;
23080;SDS011;72373;50.562;8.498;2023-11-21T09:15:21;9.30;;;6.72;;
23080;SDS011;72373;50.562;8.498;2023-11-21T09:17:47;11.68;;;7.13;;
23080;SDS011;72373;50.562;8.498;2023-11-21T09:20:12;15.07;;;7.57;;
23080;SDS011;72373;50.562;8.498;2023-11-21T09:22:39;11.65;;;7.43;;
23080;SDS011;72373;50.562;8.498;2023-11-21T09:25:05;13.15;;;7.10;;
23080;SDS011;72373;50.562;8.498;2023-11-21T09:27:33;14.18;;;6.50;;
23080;SDS011;72373;50.562;8.498;2023-11-21T09:30:00;10.73;;;6.50;;
23080;SDS011;72373;50.562;8.498;2023-11-21T09:32:26;11.20;;;5.93;;
23080;SDS011;72373;50.562;8.498;2023-11-21T09:34:52;10.82;;;7.13;;
23080;SDS011;72373;50.562;8.498;2023-11-21T09:37:20;13.90;;;7.57;;
23080;SDS011;72373;50.562;8.498;2023-11-21T09:39:45;11.90;;;8.07;;
23080;SDS011;72373;50.562;8.498;2023-11-21T09:42:17;11.80;;;8.20;;
23080;SDS011;72373;50.562;8.498;2023-11-21T09:45:03;13.05;;;7.13;;
23080;SDS011;72373;50.562;8.498;2023-11-21T09:47:49;9.20;;;6.75;;
23080;SDS011;72373;50.562;8.498;2023-11-21T09:50:16;12.13;;;7.38;;
23080;SDS011;72373;50.562;8.498;2023-11-21T09:55:36;12.02;;;6.25;;
23080;SDS011;72373;50.562;8.498;2023-11-21T09:58:04;12.02;;;7.03;;
23080;SDS011;72373;50.562;8.498;2023-11-21T10:00:32;10.07;;;6.75;;
23080;SDS011;72373;50.562;8.498;2023-11-21T10:02:59;13.05;;;6.90;;
23080;SDS011;72373;50.562;8.498;2023-11-21T10:05:25;10.77;;;6.57;;
23080;SDS011;72373;50.562;8.498;2023-11-21T10:07:51;12.20;;;7.47;;
23080;SDS011;72373;50.562;8.498;2023-11-21T10:10:18;12.50;;;6.05;;
23080;SDS011;72373;50.562;8.498;2023-11-21T10:12:47;8.90;;;6.00;;
23080;SDS011;72373;50.562;8.498;2023-11-21T10:15:18;20.60;;;5.95;;
23080;SDS011;72373;50.562;8.498;2023-11-21T10:17:46;14.40;;;5.57;;
23080;SDS011;72373;50.562;8.498;2023-11-21T10:20:14;11.60;;;5.78;;
23080;SDS011;72373;50.562;8.498;2023-11-21T10:22:40;9.80;;;6.53;;
23080;SDS011;72373;50.562;8.498;2023-11-21T10:25:10;12.07;;;5.72;;
23080;SDS011;72373;50.562;8.498;2023-11-21T10:27:38;10.10;;;5.68;;
23080;SDS011;72373;50.562;8.498;2023-11-21T10:30:04;10.60;;;5.28;;
23080;SDS011;72373;50.562;8.498;2023-11-21T10:32:31;9.60;;;5.28;;
23080;SDS011;72373;50.562;8.498;2023-11-21T10:34:58;14.23;;;6.40;;
23080;SDS011;72373;50.562;8.498;2023-11-21T10:37:31;10.70;;;5.32;;
23080;SDS011;72373;50.562;8.498;2023-11-21T10:40:01;7.97;;;5.60;;
23080;SDS011;72373;50.562;8.498;2023-11-21T10:42:27;10.65;;;5.28;;
23080;SDS011;72373;50.562;8.498;2023-11-21T10:44:53;10.50;;;6.07;;
23080;SDS011;72373;50.562;8.498;2023-11-21T10:47:19;10.38;;;5.47;;
23080;SDS011;72373;50.562;8.498;2023-11-21T10:49:48;9.48;;;5.32;;
23080;SDS011;72373;50.562;8.498;2023-11-21T10:52:14;7.28;;;5.10;;
23080;SDS011;72373;50.562;8.498;2023-11-21T10:54:45;8.93;;;4.80;;
23080;SDS011;72373;50.562;8.498;2023-11-21T10:57:12;11.00;;;4.68;;
23080;SDS011;72373;50.562;8.498;2023-11-21T10:59:42;11.50;;;4.18;;
23080;SDS011;72373;50.562;8.498;2023-11-21T11:02:19;8.02;;;4.75;;
23080;SDS011;72373;50.562;8.498;2023-11-21T11:04:50;7.53;;;4.60;;
23080;SDS011;72373;50.562;8.498;2023-11-21T11:07:17;8.82;;;4.20;;
23080;SDS011;72373;50.562;8.498;2023-11-21T11:09:43;7.03;;;4.15;;
23080;SDS011;72373;50.562;8.498;2023-11-21T11:12:10;8.07;;;4.18;;
23080;SDS011;72373;50.562;8.498;2023-11-21T11:14:36;12.35;;;4.05;;
23080;SDS011;72373;50.562;8.498;2023-11-21T11:17:07;7.63;;;3.83;;
23080;SDS011;72373;50.562;8.498;2023-11-21T11:19:34;8.02;;;4.18;;
23080;SDS011;72373;50.562;8.498;2023-11-21T11:32:56;6.95;;;3.40;;
23080;SDS011;72373;50.562;8.498;2023-11-21T11:35:52;5.13;;;3.33;;
23080;SDS011;72373;50.562;8.498;2023-11-21T11:38:25;6.13;;;3.25;;
23080;SDS011;72373;50.562;8.498;2023-11-21T11:40:55;7.65;;;3.42;;
23080;SDS011;72373;50.562;8.498;2023-11-21T11:43:27;7.43;;;3.25;;
23080;SDS011;72373;50.562;8.498;2023-11-21T11:45:56;5.82;;;3.50;;
23080;SDS011;72373;50.562;8.498;2023-11-21T11:48:24;8.70;;;3.67;;
23080;SDS011;72373;50.562;8.498;2023-11-21T11:53:46;5.70;;;3.85;;
23080;SDS011;72373;50.562;8.498;2023-11-21T11:56:28;5.70;;;3.35;;
23080;SDS011;72373;50.562;8.498;2023-11-21T11:58:59;12.18;;;4.93;;
23080;SDS011;72373;50.562;8.498;2023-11-21T12:01:33;11.25;;;4.65;;
23080;SDS011;72373;50.562;8.498;2023-11-21T12:06:41;6.75;;;3.80;;
23080;SDS011;72373;50.562;8.498;2023-11-21T12:09:09;5.75;;;4.20;;
23080;SDS011;72373;50.562;8.498;2023-11-21T12:11:45;9.98;;;5.43;;
23080;SDS011;72373;50.562;8.498;2023-11-21T12:14:12;7.57;;;4.75;;
23080;SDS011;72373;50.562;8.498;2023-11-21T12:16:38;8.13;;;4.78;;
23080;SDS011;72373;50.562;8.498;2023-11-21T12:19:04;8.73;;;4.82;;
23080;SDS011;72373;50.562;8.498;2023-11-21T12:21:30;10.88;;;5.13;;
23080;SDS011;72373;50.562;8.498;2023-11-21T12:23:57;9.50;;;4.85;;
23080;SDS011;72373;50.562;8.498;2023-11-21T12:26:26;7.53;;;4.43;;
23080;SDS011;72373;50.562;8.498;2023-11-21T12:28:52;8.40;;;4.70;;
23080;SDS011;72373;50.562;8.498;2023-11-21T12:31:21;9.15;;;5.25;;
23080;SDS011;72373;50.562;8.498;2023-11-21T12:33:50;12.13;;;5.72;;
23080;SDS011;72373;50.562;8.498;2023-11-21T12:36:16;11.60;;;6.22;;
23080;SDS011;72373;50.562;8.498;2023-11-21T12:38:41;10.35;;;6.45;;
23080;SDS011;72373;50.562;8.498;2023-11-21T12:41:09;12.50;;;6.30;;
23080;SDS011;72373;50.562;8.498;2023-11-21T12:43:35;10.30;;;5.70;;
23080;SDS011;72373;50.562;8.498;2023-11-21T12:46:04;11.90;;;6.00;;
23080;SDS011;72373;50.562;8.498;2023-11-21T12:48:34;11.77;;;6.35;;
23080;SDS011;72373;50.562;8.498;2023-11-21T12:51:03;10.38;;;5.78;;
23080;SDS011;72373;50.562;8.498;2023-11-21T12:53:30;10.48;;;5.93;;
23080;SDS011;72373;50.562;8.498;2023-11-21T12:56:01;8.35;;;5.57;;
23080;SDS011;72373;50.562;8.498;2023-11-21T12:58:34;9.57;;;5.53;;
23080;SDS011;72373;50.562;8.498;2023-11-21T13:01:00;7.40;;;5.30;;
23080;SDS011;72373;50.562;8.498;2023-11-21T13:03:29;12.45;;;5.72;;
23080;SDS011;72373;50.562;8.498;2023-11-21T13:05:55;9.13;;;5.25;;
23080;SDS011;72373;50.562;8.498;2023-11-21T13:08:24;10.60;;;5.45;;
23080;SDS011;72373;50.562;8.498;2023-11-21T13:10:51;9.27;;;5.35;;
23080;SDS011;72373;50.562;8.498;2023-11-21T13:13:20;10.10;;;5.32;;
23080;SDS011;72373;50.562;8.498;2023-11-21T13:18:40;9.82;;;6.15;;
23080;SDS011;72373;50.562;8.498;2023-11-21T13:21:07;8.35;;;4.95;;
23080;SDS011;72373;50.562;8.498;2023-11-21T13:23:40;10.02;;;4.93;;
23080;SDS011;72373;50.562;8.498;2023-11-21T13:26:07;14.63;;;5.32;;
23080;SDS011;72373;50.562;8.498;2023-11-21T13:28:33;11.10;;;5.93;;
23080;SDS011;72373;50.562;8.498;2023-11-21T13:31:00;9.80;;;5.50;;
23080;SDS011;72373;50.562;8.498;2023-11-21T13:33:34;9.75;;;5.85;;
23080;SDS011;72373;50.562;8.498;2023-11-21T13:36:03;10.43;;;5.43;;
23080;SDS011;72373;50.562;8.498;2023-11-21T13:38:32;8.73;;;5.40;;
23080;SDS011;72373;50.562;8.498;2023-11-21T13:41:00;10.20;;;5.78;;
23080;SDS011;72373;50.562;8.498;2023-11-21T13:43:26;8.32;;;5.20;;
23080;SDS011;72373;50.562;8.498;2023-11-21T13:45:53;13.10;;;6.78;;
23080;SDS011;72373;50.562;8.498;2023-11-21T13:48:31;14.70;;;6.45;;
23080;SDS011;72373;50.562;8.498;2023-11-21T13:51:07;10.57;;;6.28;;
23080;SDS011;72373;50.562;8.498;2023-11-21T13:53:40;10.52;;;6.22;;
23080;SDS011;72373;50.562;8.498;2023-11-21T13:56:07;12.32;;;6.22;;
23080;SDS011;72373;50.562;8.498;2023-11-21T13:58:33;11.50;;;6.13;;
23080;SDS011;72373;50.562;8.498;2023-11-21T14:01:16;9.52;;;5.30;;
23080;SDS011;72373;50.562;8.498;2023-11-21T14:03:55;12.20;;;5.43;;
23080;SDS011;72373;50.562;8.498;2023-11-21T14:06:34;12.93;;;6.78;;
23080;SDS011;72373;50.562;8.498;2023-11-21T14:09:07;9.50;;;5.80;;
23080;SDS011;72373;50.562;8.498;2023-11-21T14:11:33;10.50;;;5.78;;
23080;SDS011;72373;50.562;8.498;2023-11-21T14:13:59;10.23;;;5.78;;
23080;SDS011;72373;50.562;8.498;2023-11-21T14:16:25;11.48;;;5.53;;
23080;SDS011;72373;50.562;8.498;2023-11-21T14:18:50;9.98;;;5.68;;
23080;SDS011;72373;50.562;8.498;2023-11-21T14:21:26;10.90;;;5.93;;
23080;SDS011;72373;50.562;8.498;2023-11-21T14:23:52;8.05;;;4.85;;
23080;SDS011;72373;50.562;8.498;2023-11-21T14:26:20;8.60;;;5.32;;
23080;SDS011;72373;50.562;8.498;2023-11-21T14:28:45;10.55;;;5.90;;
23080;SDS011;72373;50.562;8.498;2023-11-21T14:31:13;7.85;;;5.32;;
23080;SDS011;72373;50.562;8.498;2023-11-21T14:33:41;9.68;;;5.70;;
23080;SDS011;72373;50.562;8.498;2023-11-21T14:36:09;11.20;;;5.63;;
23080;SDS011;72373;50.562;8.498;2023-11-21T14:38:35;10.77;;;5.43;;
23080;SDS011;72373;50.562;8.498;2023-11-21T14:41:02;8.57;;;5.20;;
23080;SDS011;72373;50.562;8.498;2023-11-21T14:43:28;8.70;;;5.50;;
23080;SDS011;72373;50.562;8.498;2023-11-21T14:45:55;13.38;;;6.10;;
23080;SDS011;72373;50.562;8.498;2023-11-21T14:48:22;11.20;;;5.50;;
23080;SDS011;72373;50.562;8.498;2023-11-21T14:51:07;16.10;;;8.32;;
23080;SDS011;72373;50.562;8.498;2023-11-21T14:53:52;10.50;;;6.20;;
23080;SDS011;72373;50.562;8.498;2023-11-21T14:56:22;8.80;;;5.10;;
23080;SDS011;72373;50.562;8.498;2023-11-21T14:58:58;10.68;;;5.55;;
23080;SDS011;72373;50.562;8.498;2023-11-21T15:01:30;10.88;;;5.80;;